sensor_id;sensor_type;location;lat;lon;timestamp;temperature;humidity
14236;DHT22;7202;50.718;7.072;2022-07-29T00:02:28;18.30;99.90
14236;DHT22;7202;50.718;7.072;2022-07-29T00:04:57;18.30;99.90
14236;DHT22;7202;50.718;7.072;2022-07-29T00:07:25;18.30;99.90
14236;DHT22;7202;50.718;7.072;2022-07-29T00:09:54;18.30;99.90
14236;DHT22;7202;50.718;7.072;2022-07-29T00:12:24;18.30;99.90
14236;DHT22;7202;50.718;7.072;2022-07-29T00:14:54;18.30;99.90
14236;DHT22;7202;50.718;7.072;2022-07-29T00:17:23;18.30;99.90
14236;DHT22;7202;50.718;7.072;2022-07-29T00:19:53;18.30;99.90
14236;DHT22;7202;50.718;7.072;2022-07-29T00:22:22;18.30;99.90
14236;DHT22;7202;50.718;7.072;2022-07-29T00:24:50;18.20;99.90
14236;DHT22;7202;50.718;7.072;2022-07-29T00:27:19;18.20;99.90
14236;DHT22;7202;50.718;7.072;2022-07-29T00:29:48;18.20;99.90
14236;DHT22;7202;50.718;7.072;2022-07-29T00:32:16;18.20;99.90
14236;DHT22;7202;50.718;7.072;2022-07-29T00:34:45;18.20;99.90
14236;DHT22;7202;50.718;7.072;2022-07-29T00:37:32;18.20;99.90
14236;DHT22;7202;50.718;7.072;2022-07-29T00:40:00;18.20;99.90
14236;DHT22;7202;50.718;7.072;2022-07-29T00:42:29;18.20;99.90
14236;DHT22;7202;50.718;7.072;2022-07-29T00:44:58;18.30;99.90
14236;DHT22;7202;50.718;7.072;2022-07-29T00:47:26;18.20;99.90
14236;DHT22;7202;50.718;7.072;2022-07-29T00:49:55;18.10;99.90
14236;DHT22;7202;50.718;7.072;2022-07-29T00:52:23;18.10;99.90
14236;DHT22;7202;50.718;7.072;2022-07-29T00:54:54;18.10;99.90
14236;DHT22;7202;50.718;7.072;2022-07-29T00:57:22;18.10;99.90
14236;DHT22;7202;50.718;7.072;2022-07-29T00:59:51;18.10;99.90
14236;DHT22;7202;50.718;7.072;2022-07-29T01:02:20;18.00;99.90
14236;DHT22;7202;50.718;7.072;2022-07-29T01:04:48;18.00;99.90
14236;DHT22;7202;50.718;7.072;2022-07-29T01:07:18;18.00;99.90
14236;DHT22;7202;50.718;7.072;2022-07-29T01:09:47;17.90;99.90
14236;DHT22;7202;50.718;7.072;2022-07-29T01:12:19;17.80;99.90
14236;DHT22;7202;50.718;7.072;2022-07-29T01:14:50;17.80;99.90
14236;DHT22;7202;50.718;7.072;2022-07-29T01:17:24;17.80;99.90
14236;DHT22;7202;50.718;7.072;2022-07-29T01:19:59;17.80;99.90
14236;DHT22;7202;50.718;7.072;2022-07-29T01:22:37;17.70;99.90
14236;DHT22;7202;50.718;7.072;2022-07-29T01:25:17;17.70;99.90
14236;DHT22;7202;50.718;7.072;2022-07-29T01:28:08;17.70;99.90
14236;DHT22;7202;50.718;7.072;2022-07-29T01:30:42;17.70;99.90
14236;DHT22;7202;50.718;7.072;2022-07-29T01:33:15;17.70;99.90
14236;DHT22;7202;50.718;7.072;2022-07-29T01:36:01;17.70;99.90
14236;DHT22;7202;50.718;7.072;2022-07-29T01:38:32;17.60;99.90
14236;DHT22;7202;50.718;7.072;2022-07-29T01:41:06;17.60;99.90
14236;DHT22;7202;50.718;7.072;2022-07-29T01:43:41;17.60;99.90
14236;DHT22;7202;50.718;7.072;2022-07-29T01:46:15;17.50;99.90
14236;DHT22;7202;50.718;7.072;2022-07-29T01:48:50;17.50;99.90
14236;DHT22;7202;50.718;7.072;2022-07-29T01:51:25;17.50;99.90
14236;DHT22;7202;50.718;7.072;2022-07-29T01:54:04;17.50;99.90
14236;DHT22;7202;50.718;7.072;2022-07-29T01:56:35;17.50;99.90
14236;DHT22;7202;50.718;7.072;2022-07-29T01:59:06;17.40;99.90
14236;DHT22;7202;50.718;7.072;2022-07-29T02:01:39;17.40;99.90
14236;DHT22;7202;50.718;7.072;2022-07-29T02:04:11;17.40;99.90
14236;DHT22;7202;50.718;7.072;2022-07-29T02:07:02;17.30;99.90
14236;DHT22;7202;50.718;7.072;2022-07-29T02:09:34;17.30;99.90
14236;DHT22;7202;50.718;7.072;2022-07-29T02:12:04;17.30;99.90
14236;DHT22;7202;50.718;7.072;2022-07-29T02:14:38;17.20;99.90
14236;DHT22;7202;50.718;7.072;2022-07-29T02:17:08;17.20;99.90
14236;DHT22;7202;50.718;7.072;2022-07-29T02:19:37;17.10;99.90
14236;DHT22;7202;50.718;7.072;2022-07-29T02:22:06;17.10;99.90
14236;DHT22;7202;50.718;7.072;2022-07-29T02:24:37;17.10;99.90
14236;DHT22;7202;50.718;7.072;2022-07-29T02:27:08;17.00;99.90
14236;DHT22;7202;50.718;7.072;2022-07-29T02:29:39;16.90;99.90
14236;DHT22;7202;50.718;7.072;2022-07-29T02:32:10;16.90;99.90
14236;DHT22;7202;50.718;7.072;2022-07-29T02:34:40;16.90;99.90
14236;DHT22;7202;50.718;7.072;2022-07-29T02:37:10;16.80;99.90
14236;DHT22;7202;50.718;7.072;2022-07-29T02:39:41;16.80;99.90
14236;DHT22;7202;50.718;7.072;2022-07-29T02:42:13;16.80;99.90
14236;DHT22;7202;50.718;7.072;2022-07-29T02:44:43;16.70;99.90
14236;DHT22;7202;50.718;7.072;2022-07-29T02:47:17;16.70;99.90
14236;DHT22;7202;50.718;7.072;2022-07-29T02:49:53;16.70;99.90
14236;DHT22;7202;50.718;7.072;2022-07-29T02:52:26;16.70;99.90
14236;DHT22;7202;50.718;7.072;2022-07-29T02:54:59;16.70;99.90
14236;DHT22;7202;50.718;7.072;2022-07-29T02:57:42;16.70;99.90
14236;DHT22;7202;50.718;7.072;2022-07-29T03:00:23;16.70;99.90
14236;DHT22;7202;50.718;7.072;2022-07-29T03:02:58;16.70;99.90
14236;DHT22;7202;50.718;7.072;2022-07-29T03:05:27;16.70;99.90
14236;DHT22;7202;50.718;7.072;2022-07-29T03:08:00;16.80;99.90
14236;DHT22;7202;50.718;7.072;2022-07-29T03:10:30;16.70;99.90
14236;DHT22;7202;50.718;7.072;2022-07-29T03:13:00;16.60;99.90
14236;DHT22;7202;50.718;7.072;2022-07-29T03:15:30;16.60;99.90
14236;DHT22;7202;50.718;7.072;2022-07-29T03:18:01;16.60;99.90
14236;DHT22;7202;50.718;7.072;2022-07-29T03:20:30;16.60;99.90
14236;DHT22;7202;50.718;7.072;2022-07-29T03:22:59;16.60;99.90
14236;DHT22;7202;50.718;7.072;2022-07-29T03:25:27;16.50;99.90
14236;DHT22;7202;50.718;7.072;2022-07-29T03:27:56;16.50;99.90
14236;DHT22;7202;50.718;7.072;2022-07-29T03:30:25;16.50;99.90
14236;DHT22;7202;50.718;7.072;2022-07-29T03:32:55;16.50;99.90
14236;DHT22;7202;50.718;7.072;2022-07-29T03:35:26;16.50;99.90
14236;DHT22;7202;50.718;7.072;2022-07-29T03:37:55;16.40;99.90
14236;DHT22;7202;50.718;7.072;2022-07-29T03:40:28;16.40;99.90
14236;DHT22;7202;50.718;7.072;2022-07-29T03:43:00;16.40;99.90
14236;DHT22;7202;50.718;7.072;2022-07-29T03:45:31;16.40;99.90
14236;DHT22;7202;50.718;7.072;2022-07-29T03:48:08;16.40;99.90
14236;DHT22;7202;50.718;7.072;2022-07-29T03:50:39;16.40;99.90
14236;DHT22;7202;50.718;7.072;2022-07-29T03:53:08;16.40;99.90
14236;DHT22;7202;50.718;7.072;2022-07-29T03:55:41;16.30;99.90
14236;DHT22;7202;50.718;7.072;2022-07-29T03:58:12;16.30;99.90
14236;DHT22;7202;50.718;7.072;2022-07-29T04:00:42;16.30;99.90
14236;DHT22;7202;50.718;7.072;2022-07-29T04:03:11;16.20;99.90
14236;DHT22;7202;50.718;7.072;2022-07-29T04:05:43;16.30;99.90
14236;DHT22;7202;50.718;7.072;2022-07-29T04:08:12;16.20;99.90
14236;DHT22;7202;50.718;7.072;2022-07-29T04:10:40;16.20;99.90
14236;DHT22;7202;50.718;7.072;2022-07-29T04:13:09;16.20;99.90
14236;DHT22;7202;50.718;7.072;2022-07-29T04:15:37;16.20;99.90
14236;DHT22;7202;50.718;7.072;2022-07-29T04:18:06;16.20;99.90
14236;DHT22;7202;50.718;7.072;2022-07-29T04:20:35;16.20;99.90
14236;DHT22;7202;50.718;7.072;2022-07-29T04:23:05;16.20;99.90
14236;DHT22;7202;50.718;7.072;2022-07-29T04:25:37;16.30;99.90
14236;DHT22;7202;50.718;7.072;2022-07-29T04:28:06;16.30;99.90
14236;DHT22;7202;50.718;7.072;2022-07-29T04:30:35;16.30;99.90
14236;DHT22;7202;50.718;7.072;2022-07-29T04:33:06;16.30;99.90
14236;DHT22;7202;50.718;7.072;2022-07-29T04:35:36;16.30;99.90
14236;DHT22;7202;50.718;7.072;2022-07-29T04:38:17;16.30;99.90
14236;DHT22;7202;50.718;7.072;2022-07-29T04:40:46;16.30;99.90
14236;DHT22;7202;50.718;7.072;2022-07-29T04:43:16;16.30;99.90
14236;DHT22;7202;50.718;7.072;2022-07-29T04:45:49;16.30;99.90
14236;DHT22;7202;50.718;7.072;2022-07-29T04:48:18;16.30;99.90
14236;DHT22;7202;50.718;7.072;2022-07-29T04:50:54;16.40;99.90
14236;DHT22;7202;50.718;7.072;2022-07-29T04:53:25;16.40;99.90
14236;DHT22;7202;50.718;7.072;2022-07-29T04:55:53;16.40;99.90
14236;DHT22;7202;50.718;7.072;2022-07-29T04:58:22;16.40;99.90
14236;DHT22;7202;50.718;7.072;2022-07-29T05:00:51;16.40;99.90
14236;DHT22;7202;50.718;7.072;2022-07-29T05:03:20;16.50;99.90
14236;DHT22;7202;50.718;7.072;2022-07-29T05:05:48;16.50;99.90
14236;DHT22;7202;50.718;7.072;2022-07-29T05:08:17;16.60;99.90
14236;DHT22;7202;50.718;7.072;2022-07-29T05:10:47;16.60;99.90
14236;DHT22;7202;50.718;7.072;2022-07-29T05:13:15;16.70;99.90
14236;DHT22;7202;50.718;7.072;2022-07-29T05:15:44;16.80;99.90
14236;DHT22;7202;50.718;7.072;2022-07-29T05:18:13;16.80;99.90
14236;DHT22;7202;50.718;7.072;2022-07-29T05:20:42;16.90;99.90
14236;DHT22;7202;50.718;7.072;2022-07-29T05:23:10;16.90;99.90
14236;DHT22;7202;50.718;7.072;2022-07-29T05:25:40;17.00;99.90
14236;DHT22;7202;50.718;7.072;2022-07-29T05:28:12;17.10;99.90
14236;DHT22;7202;50.718;7.072;2022-07-29T05:30:41;17.20;99.90
14236;DHT22;7202;50.718;7.072;2022-07-29T05:33:11;17.30;99.90
14236;DHT22;7202;50.718;7.072;2022-07-29T05:36:00;17.30;99.90
14236;DHT22;7202;50.718;7.072;2022-07-29T05:38:28;17.40;99.90
14236;DHT22;7202;50.718;7.072;2022-07-29T05:40:58;17.50;99.90
14236;DHT22;7202;50.718;7.072;2022-07-29T05:43:28;17.60;99.90
14236;DHT22;7202;50.718;7.072;2022-07-29T05:45:57;17.60;99.90
14236;DHT22;7202;50.718;7.072;2022-07-29T05:48:26;17.70;99.90
14236;DHT22;7202;50.718;7.072;2022-07-29T05:50:55;17.70;99.90
14236;DHT22;7202;50.718;7.072;2022-07-29T05:53:23;17.70;99.90
14236;DHT22;7202;50.718;7.072;2022-07-29T05:55:52;17.70;99.90
14236;DHT22;7202;50.718;7.072;2022-07-29T05:58:21;17.80;99.90
14236;DHT22;7202;50.718;7.072;2022-07-29T06:00:51;17.90;99.90
14236;DHT22;7202;50.718;7.072;2022-07-29T06:03:20;17.90;99.90
14236;DHT22;7202;50.718;7.072;2022-07-29T06:05:48;17.90;99.90
14236;DHT22;7202;50.718;7.072;2022-07-29T06:08:17;17.90;99.90
14236;DHT22;7202;50.718;7.072;2022-07-29T06:10:46;17.90;99.90
14236;DHT22;7202;50.718;7.072;2022-07-29T06:13:14;17.90;99.90
14236;DHT22;7202;50.718;7.072;2022-07-29T06:15:44;17.90;99.90
14236;DHT22;7202;50.718;7.072;2022-07-29T06:18:14;17.90;99.90
14236;DHT22;7202;50.718;7.072;2022-07-29T06:20:42;17.90;99.90
14236;DHT22;7202;50.718;7.072;2022-07-29T06:23:11;18.00;99.90
14236;DHT22;7202;50.718;7.072;2022-07-29T06:25:40;18.00;99.90
14236;DHT22;7202;50.718;7.072;2022-07-29T06:28:08;18.10;99.90
14236;DHT22;7202;50.718;7.072;2022-07-29T06:30:37;18.20;99.90
14236;DHT22;7202;50.718;7.072;2022-07-29T06:33:06;18.30;99.90
14236;DHT22;7202;50.718;7.072;2022-07-29T06:35:36;18.40;99.90
14236;DHT22;7202;50.718;7.072;2022-07-29T06:38:09;18.50;99.90
14236;DHT22;7202;50.718;7.072;2022-07-29T06:40:58;18.50;99.90
14236;DHT22;7202;50.718;7.072;2022-07-29T06:43:35;18.60;99.90
14236;DHT22;7202;50.718;7.072;2022-07-29T06:46:20;18.60;99.90
14236;DHT22;7202;50.718;7.072;2022-07-29T06:48:50;18.60;99.90
14236;DHT22;7202;50.718;7.072;2022-07-29T06:51:21;18.60;99.90
14236;DHT22;7202;50.718;7.072;2022-07-29T06:53:51;18.60;99.90
14236;DHT22;7202;50.718;7.072;2022-07-29T06:56:29;18.60;99.90
14236;DHT22;7202;50.718;7.072;2022-07-29T06:59:07;18.70;99.90
14236;DHT22;7202;50.718;7.072;2022-07-29T07:01:36;18.70;99.90
14236;DHT22;7202;50.718;7.072;2022-07-29T07:04:06;18.80;99.90
14236;DHT22;7202;50.718;7.072;2022-07-29T07:06:37;18.90;99.90
14236;DHT22;7202;50.718;7.072;2022-07-29T07:09:06;19.00;99.90
14236;DHT22;7202;50.718;7.072;2022-07-29T07:11:35;19.10;99.90
14236;DHT22;7202;50.718;7.072;2022-07-29T07:14:03;19.20;99.90
14236;DHT22;7202;50.718;7.072;2022-07-29T07:16:33;19.30;99.90
14236;DHT22;7202;50.718;7.072;2022-07-29T07:19:02;19.40;99.90
14236;DHT22;7202;50.718;7.072;2022-07-29T07:21:30;19.50;99.90
14236;DHT22;7202;50.718;7.072;2022-07-29T07:24:04;19.50;99.90
14236;DHT22;7202;50.718;7.072;2022-07-29T07:26:33;19.50;99.90
14236;DHT22;7202;50.718;7.072;2022-07-29T07:29:02;19.60;99.90
14236;DHT22;7202;50.718;7.072;2022-07-29T07:31:30;19.60;99.90
14236;DHT22;7202;50.718;7.072;2022-07-29T07:33:59;19.60;99.90
14236;DHT22;7202;50.718;7.072;2022-07-29T07:36:28;19.70;99.90
14236;DHT22;7202;50.718;7.072;2022-07-29T07:38:58;19.70;99.90
14236;DHT22;7202;50.718;7.072;2022-07-29T07:41:28;19.70;99.90
14236;DHT22;7202;50.718;7.072;2022-07-29T07:43:58;19.80;99.90
14236;DHT22;7202;50.718;7.072;2022-07-29T07:46:27;19.90;99.90
14236;DHT22;7202;50.718;7.072;2022-07-29T07:48:56;20.00;99.90
14236;DHT22;7202;50.718;7.072;2022-07-29T07:51:24;20.10;99.90
14236;DHT22;7202;50.718;7.072;2022-07-29T07:53:53;20.20;99.90
14236;DHT22;7202;50.718;7.072;2022-07-29T07:56:23;20.30;99.90
14236;DHT22;7202;50.718;7.072;2022-07-29T07:58:53;20.50;99.90
14236;DHT22;7202;50.718;7.072;2022-07-29T08:01:22;20.60;99.90
14236;DHT22;7202;50.718;7.072;2022-07-29T08:03:51;20.80;99.90
14236;DHT22;7202;50.718;7.072;2022-07-29T08:06:19;20.90;99.90
14236;DHT22;7202;50.718;7.072;2022-07-29T08:08:48;21.00;99.90
14236;DHT22;7202;50.718;7.072;2022-07-29T08:11:20;21.10;99.90
14236;DHT22;7202;50.718;7.072;2022-07-29T08:13:48;21.10;99.90
14236;DHT22;7202;50.718;7.072;2022-07-29T08:16:18;21.20;99.90
14236;DHT22;7202;50.718;7.072;2022-07-29T08:18:47;21.20;99.90
14236;DHT22;7202;50.718;7.072;2022-07-29T08:21:17;21.20;99.90
14236;DHT22;7202;50.718;7.072;2022-07-29T08:23:45;21.20;99.90
14236;DHT22;7202;50.718;7.072;2022-07-29T08:26:25;21.20;99.90
14236;DHT22;7202;50.718;7.072;2022-07-29T08:28:54;21.20;99.90
14236;DHT22;7202;50.718;7.072;2022-07-29T08:31:24;21.20;99.90
14236;DHT22;7202;50.718;7.072;2022-07-29T08:33:52;21.30;99.90
14236;DHT22;7202;50.718;7.072;2022-07-29T08:36:23;21.30;99.90
14236;DHT22;7202;50.718;7.072;2022-07-29T08:38:52;21.40;99.90
14236;DHT22;7202;50.718;7.072;2022-07-29T08:41:21;21.40;99.90
14236;DHT22;7202;50.718;7.072;2022-07-29T08:43:49;21.40;99.90
14236;DHT22;7202;50.718;7.072;2022-07-29T08:46:19;21.50;99.90
14236;DHT22;7202;50.718;7.072;2022-07-29T08:48:50;21.70;99.90
14236;DHT22;7202;50.718;7.072;2022-07-29T08:51:19;21.70;99.90
14236;DHT22;7202;50.718;7.072;2022-07-29T08:53:49;21.80;99.90
14236;DHT22;7202;50.718;7.072;2022-07-29T08:56:19;21.90;99.90
14236;DHT22;7202;50.718;7.072;2022-07-29T08:58:48;22.00;99.90
14236;DHT22;7202;50.718;7.072;2022-07-29T09:01:22;22.10;99.90
14236;DHT22;7202;50.718;7.072;2022-07-29T09:04:07;22.10;99.90
14236;DHT22;7202;50.718;7.072;2022-07-29T09:06:42;22.20;99.90
14236;DHT22;7202;50.718;7.072;2022-07-29T09:09:11;22.30;99.90
14236;DHT22;7202;50.718;7.072;2022-07-29T09:11:41;22.30;99.90
14236;DHT22;7202;50.718;7.072;2022-07-29T09:14:12;22.40;99.90
14236;DHT22;7202;50.718;7.072;2022-07-29T09:16:45;22.50;99.90
14236;DHT22;7202;50.718;7.072;2022-07-29T09:19:24;22.50;99.90
14236;DHT22;7202;50.718;7.072;2022-07-29T09:21:54;22.60;99.90
14236;DHT22;7202;50.718;7.072;2022-07-29T09:24:29;22.60;99.90
14236;DHT22;7202;50.718;7.072;2022-07-29T09:27:18;22.80;99.90
14236;DHT22;7202;50.718;7.072;2022-07-29T09:29:56;22.90;99.90
14236;DHT22;7202;50.718;7.072;2022-07-29T09:32:25;23.00;99.90
14236;DHT22;7202;50.718;7.072;2022-07-29T09:35:15;23.00;99.90
14236;DHT22;7202;50.718;7.072;2022-07-29T09:37:44;23.10;99.90
14236;DHT22;7202;50.718;7.072;2022-07-29T09:40:15;23.10;99.90
14236;DHT22;7202;50.718;7.072;2022-07-29T09:42:45;23.20;99.90
14236;DHT22;7202;50.718;7.072;2022-07-29T09:45:26;23.20;99.90
14236;DHT22;7202;50.718;7.072;2022-07-29T09:47:55;23.30;99.90
14236;DHT22;7202;50.718;7.072;2022-07-29T09:50:38;23.40;99.90
14236;DHT22;7202;50.718;7.072;2022-07-29T09:53:07;23.40;99.90
14236;DHT22;7202;50.718;7.072;2022-07-29T09:55:47;23.40;99.90
14236;DHT22;7202;50.718;7.072;2022-07-29T09:58:18;23.40;99.90
14236;DHT22;7202;50.718;7.072;2022-07-29T10:00:49;23.40;99.90
14236;DHT22;7202;50.718;7.072;2022-07-29T10:03:18;23.50;99.90
14236;DHT22;7202;50.718;7.072;2022-07-29T10:06:04;23.60;99.90
14236;DHT22;7202;50.718;7.072;2022-07-29T10:08:33;23.80;99.90
14236;DHT22;7202;50.718;7.072;2022-07-29T10:11:12;23.80;99.90
14236;DHT22;7202;50.718;7.072;2022-07-29T10:13:43;23.90;99.90
14236;DHT22;7202;50.718;7.072;2022-07-29T10:16:12;23.90;99.90
14236;DHT22;7202;50.718;7.072;2022-07-29T10:18:42;23.90;99.90
14236;DHT22;7202;50.718;7.072;2022-07-29T10:21:13;23.90;99.90
14236;DHT22;7202;50.718;7.072;2022-07-29T10:24:01;24.00;99.90
14236;DHT22;7202;50.718;7.072;2022-07-29T10:26:30;24.00;99.90
14236;DHT22;7202;50.718;7.072;2022-07-29T10:28:59;24.10;99.90
14236;DHT22;7202;50.718;7.072;2022-07-29T10:31:33;24.10;99.90
14236;DHT22;7202;50.718;7.072;2022-07-29T10:34:10;24.10;99.90
14236;DHT22;7202;50.718;7.072;2022-07-29T10:36:54;24.10;99.90
14236;DHT22;7202;50.718;7.072;2022-07-29T10:39:37;24.20;99.90
14236;DHT22;7202;50.718;7.072;2022-07-29T10:42:18;24.20;99.90
14236;DHT22;7202;50.718;7.072;2022-07-29T10:45:02;24.20;99.90
14236;DHT22;7202;50.718;7.072;2022-07-29T10:47:32;24.30;99.90
14236;DHT22;7202;50.718;7.072;2022-07-29T10:50:04;24.40;99.90
14236;DHT22;7202;50.718;7.072;2022-07-29T10:52:53;24.60;99.90
14236;DHT22;7202;50.718;7.072;2022-07-29T10:55:33;24.60;99.90
14236;DHT22;7202;50.718;7.072;2022-07-29T10:58:17;24.60;99.90
14236;DHT22;7202;50.718;7.072;2022-07-29T11:00:47;24.60;99.90
14236;DHT22;7202;50.718;7.072;2022-07-29T11:03:44;24.60;99.90
14236;DHT22;7202;50.718;7.072;2022-07-29T11:06:18;24.60;99.90
14236;DHT22;7202;50.718;7.072;2022-07-29T11:09:17;24.60;99.90
14236;DHT22;7202;50.718;7.072;2022-07-29T11:12:48;24.60;99.90
14236;DHT22;7202;50.718;7.072;2022-07-29T11:15:18;24.60;99.90
14236;DHT22;7202;50.718;7.072;2022-07-29T11:18:07;24.60;99.90
14236;DHT22;7202;50.718;7.072;2022-07-29T11:20:44;24.60;99.90
14236;DHT22;7202;50.718;7.072;2022-07-29T11:23:24;24.70;99.90
14236;DHT22;7202;50.718;7.072;2022-07-29T11:26:16;24.70;99.90
14236;DHT22;7202;50.718;7.072;2022-07-29T11:28:54;24.90;99.90
14236;DHT22;7202;50.718;7.072;2022-07-29T11:31:33;25.00;99.90
14236;DHT22;7202;50.718;7.072;2022-07-29T11:34:23;25.10;99.90
14236;DHT22;7202;50.718;7.072;2022-07-29T11:37:17;25.10;99.90
14236;DHT22;7202;50.718;7.072;2022-07-29T11:40:14;25.10;99.90
14236;DHT22;7202;50.718;7.072;2022-07-29T11:42:46;25.20;99.90
14236;DHT22;7202;50.718;7.072;2022-07-29T11:45:45;25.20;99.90
14236;DHT22;7202;50.718;7.072;2022-07-29T11:48:18;25.30;99.90
14236;DHT22;7202;50.718;7.072;2022-07-29T11:50:58;25.40;99.90
14236;DHT22;7202;50.718;7.072;2022-07-29T11:53:29;25.50;99.90
14236;DHT22;7202;50.718;7.072;2022-07-29T11:56:00;25.50;99.90
14236;DHT22;7202;50.718;7.072;2022-07-29T11:58:31;25.50;99.90
14236;DHT22;7202;50.718;7.072;2022-07-29T12:01:00;25.40;99.90
14236;DHT22;7202;50.718;7.072;2022-07-29T12:03:31;25.30;99.90
14236;DHT22;7202;50.718;7.072;2022-07-29T12:06:04;25.30;99.90
14236;DHT22;7202;50.718;7.072;2022-07-29T12:08:40;25.20;99.90
14236;DHT22;7202;50.718;7.072;2022-07-29T12:11:33;25.30;99.90
14236;DHT22;7202;50.718;7.072;2022-07-29T12:14:03;25.50;99.90
14236;DHT22;7202;50.718;7.072;2022-07-29T12:16:35;25.60;99.90
14236;DHT22;7202;50.718;7.072;2022-07-29T12:19:04;25.70;99.90
14236;DHT22;7202;50.718;7.072;2022-07-29T12:21:44;25.90;99.90
14236;DHT22;7202;50.718;7.072;2022-07-29T12:24:23;26.00;99.90
14236;DHT22;7202;50.718;7.072;2022-07-29T12:26:55;26.00;99.90
14236;DHT22;7202;50.718;7.072;2022-07-29T12:29:25;26.10;99.90
14236;DHT22;7202;50.718;7.072;2022-07-29T12:32:03;26.10;99.90
14236;DHT22;7202;50.718;7.072;2022-07-29T12:34:45;26.10;99.90
14236;DHT22;7202;50.718;7.072;2022-07-29T12:37:14;26.10;99.90
14236;DHT22;7202;50.718;7.072;2022-07-29T12:39:43;26.10;99.90
14236;DHT22;7202;50.718;7.072;2022-07-29T12:42:13;26.10;99.90
14236;DHT22;7202;50.718;7.072;2022-07-29T12:44:48;26.10;99.90
14236;DHT22;7202;50.718;7.072;2022-07-29T12:47:18;26.10;99.90
14236;DHT22;7202;50.718;7.072;2022-07-29T12:49:48;26.10;99.90
14236;DHT22;7202;50.718;7.072;2022-07-29T12:52:31;26.10;99.90
14236;DHT22;7202;50.718;7.072;2022-07-29T12:55:00;26.10;99.90
14236;DHT22;7202;50.718;7.072;2022-07-29T12:57:30;26.10;99.90
14236;DHT22;7202;50.718;7.072;2022-07-29T13:00:06;26.10;99.90
14236;DHT22;7202;50.718;7.072;2022-07-29T13:02:38;26.20;99.90
14236;DHT22;7202;50.718;7.072;2022-07-29T13:05:09;26.20;99.90
14236;DHT22;7202;50.718;7.072;2022-07-29T13:07:38;26.20;99.90
14236;DHT22;7202;50.718;7.072;2022-07-29T13:10:23;26.20;99.90
14236;DHT22;7202;50.718;7.072;2022-07-29T13:13:02;26.20;99.90
14236;DHT22;7202;50.718;7.072;2022-07-29T13:15:33;26.10;99.90
14236;DHT22;7202;50.718;7.072;2022-07-29T13:18:02;26.10;99.90
14236;DHT22;7202;50.718;7.072;2022-07-29T13:20:31;26.10;99.90
14236;DHT22;7202;50.718;7.072;2022-07-29T13:23:00;26.00;99.90
14236;DHT22;7202;50.718;7.072;2022-07-29T13:25:30;26.10;99.90
14236;DHT22;7202;50.718;7.072;2022-07-29T13:28:00;26.10;99.90
14236;DHT22;7202;50.718;7.072;2022-07-29T13:30:28;26.10;99.90
14236;DHT22;7202;50.718;7.072;2022-07-29T13:32:58;26.10;99.90
14236;DHT22;7202;50.718;7.072;2022-07-29T13:35:27;26.10;99.90
14236;DHT22;7202;50.718;7.072;2022-07-29T13:37:57;26.10;99.90
14236;DHT22;7202;50.718;7.072;2022-07-29T13:40:26;26.10;99.90
14236;DHT22;7202;50.718;7.072;2022-07-29T13:42:56;26.20;99.90
14236;DHT22;7202;50.718;7.072;2022-07-29T13:45:24;26.30;99.90
14236;DHT22;7202;50.718;7.072;2022-07-29T13:47:55;26.30;99.90
14236;DHT22;7202;50.718;7.072;2022-07-29T13:50:25;26.40;99.90
14236;DHT22;7202;50.718;7.072;2022-07-29T13:52:54;26.40;99.90
14236;DHT22;7202;50.718;7.072;2022-07-29T13:55:23;26.40;99.90
14236;DHT22;7202;50.718;7.072;2022-07-29T13:57:51;26.40;99.90
14236;DHT22;7202;50.718;7.072;2022-07-29T14:00:20;26.50;99.90
14236;DHT22;7202;50.718;7.072;2022-07-29T14:02:50;26.50;99.90
14236;DHT22;7202;50.718;7.072;2022-07-29T14:05:19;26.60;99.90
14236;DHT22;7202;50.718;7.072;2022-07-29T14:07:49;26.60;99.90
14236;DHT22;7202;50.718;7.072;2022-07-29T14:10:17;26.60;99.90
14236;DHT22;7202;50.718;7.072;2022-07-29T14:12:46;26.60;99.90
14236;DHT22;7202;50.718;7.072;2022-07-29T14:15:15;26.70;99.90
14236;DHT22;7202;50.718;7.072;2022-07-29T14:17:44;26.80;99.50
14236;DHT22;7202;50.718;7.072;2022-07-29T14:20:13;26.80;99.90
14236;DHT22;7202;50.718;7.072;2022-07-29T14:22:43;26.90;99.50
14236;DHT22;7202;50.718;7.072;2022-07-29T14:25:13;26.90;99.40
14236;DHT22;7202;50.718;7.072;2022-07-29T14:27:42;26.90;99.50
14236;DHT22;7202;50.718;7.072;2022-07-29T14:30:11;26.90;99.60
14236;DHT22;7202;50.718;7.072;2022-07-29T14:32:40;26.90;99.50
14236;DHT22;7202;50.718;7.072;2022-07-29T14:35:09;26.80;98.80
14236;DHT22;7202;50.718;7.072;2022-07-29T14:37:39;26.70;99.40
14236;DHT22;7202;50.718;7.072;2022-07-29T14:40:08;26.60;99.50
14236;DHT22;7202;50.718;7.072;2022-07-29T14:42:39;26.50;99.90
14236;DHT22;7202;50.718;7.072;2022-07-29T14:45:09;26.50;99.90
14236;DHT22;7202;50.718;7.072;2022-07-29T14:47:38;26.50;99.90
14236;DHT22;7202;50.718;7.072;2022-07-29T14:50:08;26.60;99.90
14236;DHT22;7202;50.718;7.072;2022-07-29T14:52:36;26.60;99.90
14236;DHT22;7202;50.718;7.072;2022-07-29T14:55:05;26.70;99.90
14236;DHT22;7202;50.718;7.072;2022-07-29T14:57:48;26.70;99.90
14236;DHT22;7202;50.718;7.072;2022-07-29T15:00:17;26.70;99.90
14236;DHT22;7202;50.718;7.072;2022-07-29T15:02:46;26.70;99.90
14236;DHT22;7202;50.718;7.072;2022-07-29T15:05:31;26.60;99.90
14236;DHT22;7202;50.718;7.072;2022-07-29T15:07:59;26.60;99.90
14236;DHT22;7202;50.718;7.072;2022-07-29T15:10:28;26.50;99.90
14236;DHT22;7202;50.718;7.072;2022-07-29T15:12:58;26.50;99.90
14236;DHT22;7202;50.718;7.072;2022-07-29T15:15:27;26.40;99.90
14236;DHT22;7202;50.718;7.072;2022-07-29T15:17:56;26.30;99.90
14236;DHT22;7202;50.718;7.072;2022-07-29T15:20:25;26.20;99.90
14236;DHT22;7202;50.718;7.072;2022-07-29T15:22:54;26.10;99.90
14236;DHT22;7202;50.718;7.072;2022-07-29T15:25:24;26.10;99.90
14236;DHT22;7202;50.718;7.072;2022-07-29T15:27:54;26.10;99.90
14236;DHT22;7202;50.718;7.072;2022-07-29T15:30:30;26.10;99.90
14236;DHT22;7202;50.718;7.072;2022-07-29T15:33:01;26.10;99.90
14236;DHT22;7202;50.718;7.072;2022-07-29T15:35:30;26.10;99.90
14236;DHT22;7202;50.718;7.072;2022-07-29T15:38:06;26.00;99.90
14236;DHT22;7202;50.718;7.072;2022-07-29T15:40:36;26.00;99.90
14236;DHT22;7202;50.718;7.072;2022-07-29T15:43:05;25.90;99.90
14236;DHT22;7202;50.718;7.072;2022-07-29T15:45:39;25.90;99.90
14236;DHT22;7202;50.718;7.072;2022-07-29T15:48:08;25.80;99.90
14236;DHT22;7202;50.718;7.072;2022-07-29T15:50:41;25.70;99.90
14236;DHT22;7202;50.718;7.072;2022-07-29T15:53:13;25.70;99.90
14236;DHT22;7202;50.718;7.072;2022-07-29T15:55:43;25.70;99.90
14236;DHT22;7202;50.718;7.072;2022-07-29T15:58:12;25.70;99.90
14236;DHT22;7202;50.718;7.072;2022-07-29T16:00:42;25.80;99.90
14236;DHT22;7202;50.718;7.072;2022-07-29T16:03:11;25.80;99.90
14236;DHT22;7202;50.718;7.072;2022-07-29T16:05:39;25.70;99.90
14236;DHT22;7202;50.718;7.072;2022-07-29T16:08:08;25.70;99.90
14236;DHT22;7202;50.718;7.072;2022-07-29T16:10:37;25.70;99.90
14236;DHT22;7202;50.718;7.072;2022-07-29T16:13:05;25.70;99.90
14236;DHT22;7202;50.718;7.072;2022-07-29T16:15:34;25.70;99.90
14236;DHT22;7202;50.718;7.072;2022-07-29T16:18:04;25.70;99.90